Time;durP1;ratioP1;P1;durP2;ratioP2;P2;SDS_P1;SDS_P2;PMS_P1;PMS_P2;Temp;Humidity;BMP_temperature;BMP_pressure;BME280_temperature;BME280_humidity;BME280_pressure;Samples;Min_cycle;Max_cycle;Signal;HPM_P1;HPM_P2
2022/10/01 00:00:12;;;;;;;;;0.00;0.00;;;;;;;;5095808;27;45981;-72
2022/10/01 00:02:37;;;;;;;;;0.33;0.33;;;;;;;;5095490;27;45428;-71
2022/10/01 00:05:05;;;;;;;;;1.00;1.00;;;;;;;;5095770;27;45427;-72
2022/10/01 00:07:35;;;;;;;;;0.33;0.33;;;;;;;;5095566;27;45374;-72
2022/10/01 00:10:01;;;;;;;;;1.00;1.00;;;;;;;;5095191;27;45427;-72
2022/10/01 00:12:26;;;;;;;;;2.00;1.00;;;;;;;;5095518;27;45378;-72
2022/10/01 00:14:51;;;;;;;;;0.00;0.00;;;;;;;;5095766;27;45320;-72
2022/10/01 00:17:16;;;;;;;;;1.00;1.00;;;;;;;;5095583;27;45254;-72
2022/10/01 00:19:41;;;;;;;;;1.00;0.00;;;;;;;;5095787;27;45369;-72
2022/10/01 00:22:06;;;;;;;;;0.00;0.00;;;;;;;;5095301;27;45209;-71
2022/10/01 00:24:32;;;;;;;;;0.00;0.00;;;;;;;;5095746;27;45336;-71
2022/10/01 00:26:57;;;;;;;;;2.00;1.00;;;;;;;;5095038;27;45569;-71
2022/10/01 00:29:22;;;;;;;;;0.67;0.67;;;;;;;;5095261;27;45422;-71
2022/10/01 00:31:48;;;;;;;;;2.00;0.67;;;;;;;;5095319;27;45433;-71
2022/10/01 00:34:14;;;;;;;;;0.00;0.00;;;;;;;;5095598;27;45334;-72
2022/10/01 00:36:40;;;;;;;;;1.00;1.00;;;;;;;;5095275;27;45372;-71
2022/10/01 00:39:06;;;;;;;;;1.33;1.00;;;;;;;;5098177;27;47066;-71
2022/10/01 00:41:32;;;;;;;;;1.00;1.00;;;;;;;;5098446;27;45308;-71
2022/10/01 00:43:59;;;;;;;;;0.67;0.67;;;;;;;;5098993;27;45456;-71
2022/10/01 00:46:27;;;;;;;;;1.00;1.00;;;;;;;;5098830;27;45410;-71
2022/10/01 00:48:57;;;;;;;;;1.00;1.00;;;;;;;;5098638;27;47197;-72
2022/10/01 00:51:23;;;;;;;;;1.00;1.00;;;;;;;;5098439;27;45719;-71
2022/10/01 00:53:48;;;;;;;;;0.00;0.00;;;;;;;;5098847;27;45393;-71
2022/10/01 00:56:13;;;;;;;;;0.00;0.00;;;;;;;;5098458;27;45258;-71
2022/10/01 00:58:38;;;;;;;;;1.00;1.00;;;;;;;;5098317;27;46308;-71
2022/10/01 01:01:04;;;;;;;;;0.00;0.00;;;;;;;;5098581;27;45361;-72
2022/10/01 01:03:29;;;;;;;;;1.00;1.00;;;;;;;;5098575;27;45438;-71
2022/10/01 01:05:54;;;;;;;;;1.00;1.00;;;;;;;;5098450;27;46506;-71
2022/10/01 01:08:19;;;;;;;;;0.00;0.00;;;;;;;;5097986;27;47050;-72
2022/10/01 01:11:14;;;;;;;;;1.00;1.00;;;;;;;;5098171;27;45373;-72
2022/10/01 01:13:42;;;;;;;;;1.00;1.00;;;;;;;;5084768;27;45398;-71
2022/10/01 01:16:07;;;;;;;;;0.00;0.00;;;;;;;;5097415;27;45512;-71
2022/10/01 01:18:49;;;;;;;;;0.25;0.25;;;;;;;;5098274;27;45478;-72
2022/10/01 01:21:17;;;;;;;;;1.00;1.00;;;;;;;;5098207;27;45288;-72
2022/10/01 01:24:01;;;;;;;;;0.00;0.00;;;;;;;;5097544;27;45320;-71
2022/10/01 01:26:32;;;;;;;;;1.00;1.00;;;;;;;;5079500;27;45677;-71
2022/10/01 01:29:03;;;;;;;;;0.00;0.00;;;;;;;;5097988;27;45409;-71
2022/10/01 01:31:32;;;;;;;;;0.00;0.00;;;;;;;;5098093;27;45393;-71
2022/10/01 01:33:59;;;;;;;;;3.00;1.00;;;;;;;;5097456;27;45363;-71
2022/10/01 01:36:30;;;;;;;;;1.00;1.00;;;;;;;;5097870;27;45339;-71
2022/10/01 01:38:58;;;;;;;;;0.33;0.33;;;;;;;;5097542;27;46422;-71
2022/10/01 01:41:24;;;;;;;;;1.00;1.00;;;;;;;;5097668;27;45424;-72
2022/10/01 01:43:51;;;;;;;;;1.00;1.00;;;;;;;;5097949;27;45529;-71
2022/10/01 01:46:18;;;;;;;;;0.67;0.67;;;;;;;;5097830;27;45483;-71
2022/10/01 01:48:46;;;;;;;;;1.00;1.00;;;;;;;;5097505;27;46418;-71
2022/10/01 01:51:11;;;;;;;;;1.33;1.00;;;;;;;;5097756;27;45630;-71
2022/10/01 01:53:37;;;;;;;;;0.33;0.33;;;;;;;;5097176;27;45492;-71
2022/10/01 01:56:03;;;;;;;;;1.00;1.00;;;;;;;;5097750;27;45547;-71
2022/10/01 01:58:31;;;;;;;;;2.00;0.00;;;;;;;;5097638;27;46288;-71
2022/10/01 02:00:56;;;;;;;;;0.00;0.00;;;;;;;;5097539;27;45370;-71
2022/10/01 02:03:23;;;;;;;;;1.00;1.00;;;;;;;;5096916;27;45323;-71
2022/10/01 02:06:00;;;;;;;;;0.67;0.67;;;;;;;;5096817;27;45372;-71
2022/10/01 02:08:46;;;;;;;;;0.33;0.33;;;;;;;;5096492;27;46342;-71
2022/10/01 02:11:28;;;;;;;;;1.00;0.67;;;;;;;;5096829;27;45480;-71
2022/10/01 02:13:53;;;;;;;;;3.00;2.00;;;;;;;;5097112;27;45476;-71
2022/10/01 02:16:18;;;;;;;;;0.00;0.00;;;;;;;;5097299;27;45420;-72
2022/10/01 02:18:52;;;;;;;;;0.67;0.00;;;;;;;;5097088;27;45566;-71
2022/10/01 02:21:29;;;;;;;;;0.67;0.00;;;;;;;;5096965;27;45458;-72
2022/10/01 02:23:58;;;;;;;;;1.00;1.00;;;;;;;;5096828;27;45441;-71
2022/10/01 02:26:25;;;;;;;;;0.00;0.00;;;;;;;;5097343;27;45415;-71
2022/10/01 02:28:52;;;;;;;;;0.00;0.00;;;;;;;;5096712;27;47491;-71
2022/10/01 02:31:18;;;;;;;;;0.00;0.00;;;;;;;;5097214;27;45429;-72
2022/10/01 02:33:45;;;;;;;;;1.67;1.67;;;;;;;;5097023;27;45291;-71
2022/10/01 02:36:13;;;;;;;;;0.00;0.00;;;;;;;;5096642;27;45302;-72
2022/10/01 02:38:40;;;;;;;;;1.00;1.00;;;;;;;;5078493;27;46349;-71
2022/10/01 02:41:07;;;;;;;;;0.67;0.33;;;;;;;;5096759;27;45354;-71
2022/10/01 02:43:36;;;;;;;;;1.00;1.00;;;;;;;;5097067;27;45271;-71
2022/10/01 02:46:31;;;;;;;;;1.00;1.00;;;;;;;;5096580;27;45359;-72
2022/10/01 02:48:58;;;;;;;;;0.33;0.33;;;;;;;;5002368;28;46291;-71
2022/10/01 02:51:32;;;;;;;;;0.00;0.00;;;;;;;;5013277;28;45408;-71
2022/10/01 02:54:05;;;;;;;;;0.33;0.33;;;;;;;;5013627;28;45464;-72
2022/10/01 02:59:15;;;;;;;;;0.00;0.00;;;;;;;;5013283;28;45786;-71
2022/10/01 03:01:40;;;;;;;;;1.00;1.00;;;;;;;;5012998;28;45331;-71
2022/10/01 03:04:06;;;;;;;;;0.00;0.00;;;;;;;;5013678;28;45334;-72
2022/10/01 03:06:34;;;;;;;;;3.00;0.00;;;;;;;;5013030;28;45434;-71
2022/10/01 03:09:00;;;;;;;;;0.00;0.00;;;;;;;;5013182;28;46231;-71
2022/10/01 03:11:25;;;;;;;;;0.67;0.67;;;;;;;;5013246;28;45369;-71
2022/10/01 03:13:51;;;;;;;;;0.00;0.00;;;;;;;;5012990;28;45423;-71
2022/10/01 03:16:16;;;;;;;;;1.00;1.00;;;;;;;;5013534;28;45347;-71
2022/10/01 03:18:41;;;;;;;;;1.00;1.00;;;;;;;;5012969;28;47166;-71
2022/10/01 03:21:06;;;;;;;;;1.00;1.00;;;;;;;;5013177;28;45589;-71
2022/10/01 03:23:32;;;;;;;;;0.00;0.00;;;;;;;;5013511;28;45492;-71
2022/10/01 03:25:57;;;;;;;;;0.00;0.00;;;;;;;;5074898;27;45343;-72
2022/10/01 03:28:22;;;;;;;;;2.00;1.00;;;;;;;;5096605;27;45311;-71
2022/10/01 03:30:47;;;;;;;;;0.00;0.00;;;;;;;;5095990;27;45454;-71
2022/10/01 03:33:12;;;;;;;;;0.00;0.00;;;;;;;;5096305;27;45312;-71
2022/10/01 03:35:37;;;;;;;;;0.00;0.00;;;;;;;;5095873;27;45288;-71
2022/10/01 03:38:03;;;;;;;;;1.00;1.00;;;;;;;;5111680;27;46305;-72
2022/10/01 03:40:28;;;;;;;;;0.00;0.00;;;;;;;;5096098;27;45364;-71
2022/10/01 03:42:53;;;;;;;;;1.00;1.00;;;;;;;;5095934;27;45300;-71
2022/10/01 03:45:18;;;;;;;;;0.67;0.33;;;;;;;;5095134;27;45686;-72
2022/10/01 03:47:50;;;;;;;;;0.00;0.00;;;;;;;;5095892;27;47527;-71
2022/10/01 03:50:15;;;;;;;;;0.00;0.00;;;;;;;;5095590;27;45334;-71
2022/10/01 03:52:41;;;;;;;;;0.00;0.00;;;;;;;;5095702;27;45455;-71
2022/10/01 03:55:06;;;;;;;;;0.00;0.00;;;;;;;;5095860;27;45451;-71
2022/10/01 03:57:31;;;;;;;;;1.00;0.00;;;;;;;;5095745;27;46191;-71
2022/10/01 03:59:56;;;;;;;;;0.00;0.00;;;;;;;;5095807;27;46104;-72
2022/10/01 04:02:22;;;;;;;;;0.00;0.00;;;;;;;;5096162;27;45344;-71
2022/10/01 04:04:47;;;;;;;;;0.00;0.00;;;;;;;;5095344;27;45306;-71
2022/10/01 04:07:13;;;;;;;;;0.00;0.00;;;;;;;;5095299;27;45845;-71
2022/10/01 04:09:38;;;;;;;;;0.33;0.33;;;;;;;;5095905;27;45668;-71
2022/10/01 04:12:03;;;;;;;;;1.00;1.00;;;;;;;;5095759;27;45410;-71
2022/10/01 04:14:29;;;;;;;;;0.00;0.00;;;;;;;;5099503;27;45425;-72
2022/10/01 04:16:54;;;;;;;;;0.00;0.00;;;;;;;;5098929;27;46994;-71
2022/10/01 04:19:19;;;;;;;;;0.00;0.00;;;;;;;;5098839;27;45413;-71
2022/10/01 04:21:44;;;;;;;;;0.00;0.00;;;;;;;;5099595;27;45376;-71
2022/10/01 04:24:09;;;;;;;;;0.67;0.67;;;;;;;;5099001;27;45442;-71
2022/10/01 04:26:35;;;;;;;;;0.00;0.00;;;;;;;;5099008;27;46106;-71
2022/10/01 04:29:00;;;;;;;;;0.33;0.33;;;;;;;;5099020;27;45389;-71
2022/10/01 04:31:25;;;;;;;;;0.00;0.00;;;;;;;;5099251;27;45453;-71
2022/10/01 04:33:51;;;;;;;;;0.00;0.00;;;;;;;;5098769;27;45441;-72
2022/10/01 04:36:17;;;;;;;;;1.00;0.00;;;;;;;;5098675;27;46071;-71
2022/10/01 04:38:42;;;;;;;;;2.00;0.00;;;;;;;;5098926;27;45359;-71
2022/10/01 04:41:08;;;;;;;;;0.00;0.00;;;;;;;;5098889;27;45472;-71
2022/10/01 04:43:33;;;;;;;;;1.00;1.00;;;;;;;;5099228;27;45217;-71
2022/10/01 04:45:58;;;;;;;;;0.33;0.00;;;;;;;;5098714;27;45418;-71
2022/10/01 04:48:23;;;;;;;;;0.00;0.00;;;;;;;;5098395;27;45428;-71
2022/10/01 04:50:48;;;;;;;;;1.67;0.67;;;;;;;;5099010;27;45350;-71
2022/10/01 04:53:14;;;;;;;;;0.00;0.00;;;;;;;;5098461;27;45276;-71
2022/10/01 04:55:39;;;;;;;;;0.00;0.00;;;;;;;;5098782;27;46174;-71
2022/10/01 04:58:04;;;;;;;;;0.00;0.00;;;;;;;;5098605;27;45376;-71
2022/10/01 05:00:29;;;;;;;;;0.00;0.00;;;;;;;;5098781;27;45287;-71
2022/10/01 05:02:55;;;;;;;;;1.00;1.00;;;;;;;;5079791;27;45414;-71
2022/10/01 05:05:22;;;;;;;;;0.00;0.00;;;;;;;;5098196;27;45921;-72
2022/10/01 05:07:48;;;;;;;;;0.00;0.00;;;;;;;;5098187;27;45479;-71
2022/10/01 05:10:18;;;;;;;;;0.00;0.00;;;;;;;;5098525;27;45409;-72
2022/10/01 05:12:45;;;;;;;;;0.33;0.33;;;;;;;;5098578;27;45423;-72
2022/10/01 05:15:10;;;;;;;;;0.67;0.67;;;;;;;;5097873;27;46981;-72
2022/10/01 05:17:35;;;;;;;;;1.00;1.00;;;;;;;;5098039;27;45368;-71
2022/10/01 05:20:01;;;;;;;;;1.00;0.00;;;;;;;;5098356;27;45455;-71
2022/10/01 05:22:26;;;;;;;;;0.33;0.33;;;;;;;;5098162;27;45533;-72
2022/10/01 05:24:52;;;;;;;;;1.00;1.00;;;;;;;;5097725;27;45896;-71
2022/10/01 05:27:17;;;;;;;;;1.67;0.00;;;;;;;;5097884;27;45304;-71
2022/10/01 05:29:42;;;;;;;;;0.00;0.00;;;;;;;;5098503;27;45511;-71
2022/10/01 05:32:08;;;;;;;;;1.00;1.00;;;;;;;;5097846;27;45441;-72
2022/10/01 05:34:34;;;;;;;;;0.00;0.00;;;;;;;;5079643;27;48432;-71
2022/10/01 05:36:59;;;;;;;;;0.00;0.00;;;;;;;;5097855;27;45460;-71
2022/10/01 05:39:25;;;;;;;;;1.00;0.00;;;;;;;;5097891;27;45401;-71
2022/10/01 05:41:50;;;;;;;;;0.00;0.00;;;;;;;;5098340;27;45411;-71
2022/10/01 05:44:15;;;;;;;;;0.00;0.00;;;;;;;;5098224;27;45370;-71
2022/10/01 05:46:42;;;;;;;;;0.00;0.00;;;;;;;;5097615;27;45417;-71
2022/10/01 05:49:08;;;;;;;;;0.00;0.00;;;;;;;;5098396;27;45677;-71
2022/10/01 05:51:35;;;;;;;;;0.00;0.00;;;;;;;;5098281;27;45237;-71
2022/10/01 05:54:03;;;;;;;;;1.00;1.00;;;;;;;;5097968;27;46421;-71
2022/10/01 05:56:28;;;;;;;;;0.00;0.00;;;;;;;;5097650;27;45309;-71
2022/10/01 05:58:53;;;;;;;;;0.33;0.00;;;;;;;;5097970;27;45393;-72
2022/10/01 06:01:19;;;;;;;;;0.00;0.00;;;;;;;;5097404;27;45354;-72
2022/10/01 06:03:44;;;;;;;;;0.00;0.00;;;;;;;;5097572;27;46291;-71
2022/10/01 06:06:09;;;;;;;;;0.00;0.00;;;;;;;;5097458;27;45488;-72
2022/10/01 06:08:35;;;;;;;;;0.00;0.00;;;;;;;;5097650;27;45630;-71
2022/10/01 06:11:01;;;;;;;;;1.67;0.00;;;;;;;;5097930;27;45448;-72
2022/10/01 06:13:27;;;;;;;;;0.00;0.00;;;;;;;;5097129;27;45305;-71
2022/10/01 06:15:52;;;;;;;;;0.00;0.00;;;;;;;;5097170;27;45260;-71
2022/10/01 06:18:18;;;;;;;;;1.00;1.00;;;;;;;;5097659;27;45597;-71
2022/10/01 06:20:43;;;;;;;;;1.00;1.00;;;;;;;;5097225;27;45369;-72
2022/10/01 06:23:11;;;;;;;;;0.00;0.00;;;;;;;;5078629;27;46592;-71
2022/10/01 06:25:37;;;;;;;;;0.33;0.33;;;;;;;;5097328;27;45396;-72
2022/10/01 06:28:04;;;;;;;;;2.33;0.00;;;;;;;;5097587;27;45434;-71
2022/10/01 06:30:30;;;;;;;;;0.00;0.00;;;;;;;;5096950;27;45490;-71
2022/10/01 06:33:03;;;;;;;;;0.00;0.00;;;;;;;;5097125;27;45383;-72
2022/10/01 06:35:32;;;;;;;;;0.00;0.00;;;;;;;;5096219;27;45367;-72
2022/10/01 06:38:00;;;;;;;;;0.00;0.00;;;;;;;;5096837;27;45757;-71
2022/10/01 06:40:26;;;;;;;;;0.00;0.00;;;;;;;;5097275;27;45461;-72
2022/10/01 06:42:51;;;;;;;;;0.33;0.00;;;;;;;;5097135;27;47128;-72
2022/10/01 06:45:17;;;;;;;;;1.33;1.33;;;;;;;;5097340;27;45504;-71
2022/10/01 06:47:42;;;;;;;;;0.00;0.00;;;;;;;;5097735;27;45407;-72
2022/10/01 06:50:07;;;;;;;;;0.00;0.00;;;;;;;;5096960;27;45462;-71
2022/10/01 06:52:47;;;;;;;;;1.00;0.00;;;;;;;;5097473;27;46515;-72
2022/10/01 06:55:13;;;;;;;;;1.00;0.67;;;;;;;;5096779;27;45560;-71
2022/10/01 06:57:38;;;;;;;;;0.00;0.00;;;;;;;;5096868;27;45282;-71
2022/10/01 07:00:04;;;;;;;;;0.00;0.00;;;;;;;;5096819;27;45409;-71
2022/10/01 07:02:31;;;;;;;;;0.33;0.00;;;;;;;;5097182;27;45479;-72
2022/10/01 07:04:59;;;;;;;;;0.00;0.00;;;;;;;;5097048;27;45353;-72
2022/10/01 07:07:34;;;;;;;;;0.00;0.00;;;;;;;;5096358;27;45307;-71
2022/10/01 07:10:00;;;;;;;;;0.33;0.00;;;;;;;;5097002;27;45391;-71
2022/10/01 07:12:26;;;;;;;;;0.00;0.00;;;;;;;;5096113;27;47276;-72
2022/10/01 07:14:51;;;;;;;;;2.00;0.00;;;;;;;;5096708;27;45538;-71
2022/10/01 07:17:16;;;;;;;;;1.00;1.00;;;;;;;;5096538;27;45286;-72
2022/10/01 07:19:42;;;;;;;;;1.00;1.00;;;;;;;;5096872;27;45398;-71
2022/10/01 07:22:07;;;;;;;;;1.00;1.00;;;;;;;;5096247;27;45379;-71
2022/10/01 07:24:32;;;;;;;;;1.00;0.00;;;;;;;;5096429;27;45524;-71
2022/10/01 07:26:57;;;;;;;;;0.00;0.00;;;;;;;;5096116;27;45373;-72
2022/10/01 07:29:23;;;;;;;;;3.00;1.00;;;;;;;;5096209;27;45551;-71
2022/10/01 07:31:49;;;;;;;;;2.00;0.00;;;;;;;;5096331;27;45442;-71
2022/10/01 07:34:14;;;;;;;;;1.00;0.00;;;;;;;;5096098;27;45307;-71
2022/10/01 07:36:44;;;;;;;;;0.00;0.00;;;;;;;;5077391;27;45419;-71
2022/10/01 07:39:09;;;;;;;;;0.00;0.00;;;;;;;;5096314;27;45463;-71
2022/10/01 07:41:34;;;;;;;;;0.00;0.00;;;;;;;;5095688;27;46052;-71
2022/10/01 07:44:02;;;;;;;;;0.00;0.00;;;;;;;;5095898;27;45366;-71
2022/10/01 07:46:27;;;;;;;;;1.67;0.00;;;;;;;;5095872;27;45451;-71
2022/10/01 07:48:52;;;;;;;;;0.00;0.00;;;;;;;;5096110;27;45342;-71
2022/10/01 07:51:18;;;;;;;;;4.00;1.00;;;;;;;;5095918;27;46153;-72
2022/10/01 07:53:43;;;;;;;;;0.00;0.00;;;;;;;;5095953;27;45539;-71
2022/10/01 07:56:08;;;;;;;;;0.67;0.33;;;;;;;;5095824;27;45331;-71
2022/10/01 07:58:34;;;;;;;;;1.00;0.00;;;;;;;;5095641;27;45519;-71
2022/10/01 08:01:02;;;;;;;;;2.67;0.33;;;;;;;;5095923;27;45409;-71
2022/10/01 08:03:27;;;;;;;;;0.67;0.67;;;;;;;;5095645;27;45420;-71
2022/10/01 08:05:53;;;;;;;;;0.00;0.00;;;;;;;;5095725;27;45399;-72
2022/10/01 08:08:18;;;;;;;;;0.00;0.00;;;;;;;;5095197;27;45535;-71
2022/10/01 08:10:43;;;;;;;;;0.67;0.67;;;;;;;;5094989;27;45397;-71
2022/10/01 08:13:13;;;;;;;;;0.00;0.00;;;;;;;;5083872;27;45357;-71
2022/10/01 08:15:39;;;;;;;;;0.33;0.33;;;;;;;;5075623;27;45339;-71
2022/10/01 08:18:04;;;;;;;;;0.33;0.33;;;;;;;;5095722;27;45362;-72
2022/10/01 08:20:30;;;;;;;;;0.00;0.00;;;;;;;;5095460;27;46149;-72
2022/10/01 08:23:02;;;;;;;;;0.00;0.00;;;;;;;;5095645;27;45342;-71
2022/10/01 08:25:27;;;;;;;;;0.00;0.00;;;;;;;;5095404;27;45362;-71
2022/10/01 08:27:52;;;;;;;;;0.67;0.67;;;;;;;;5095462;27;45387;-71
2022/10/01 08:30:17;;;;;;;;;2.00;0.00;;;;;;;;5095342;27;46138;-71
2022/10/01 08:32:43;;;;;;;;;2.00;1.00;;;;;;;;5095463;27;45350;-71
2022/10/01 08:35:08;;;;;;;;;0.67;0.00;;;;;;;;5095734;27;45334;-72
2022/10/01 08:37:33;;;;;;;;;1.00;0.00;;;;;;;;5078715;27;45548;-71
2022/10/01 08:39:58;;;;;;;;;0.00;0.00;;;;;;;;5098150;27;45998;-71
2022/10/01 08:42:33;;;;;;;;;0.33;0.33;;;;;;;;5095430;27;45377;-71
2022/10/01 08:45:00;;;;;;;;;1.00;0.00;;;;;;;;5096252;27;45381;-71
2022/10/01 08:47:48;;;;;;;;;1.00;0.00;;;;;;;;5095167;27;45354;-71
2022/10/01 08:50:18;;;;;;;;;0.00;0.00;;;;;;;;5095157;27;46189;-71
2022/10/01 08:52:57;;;;;;;;;0.00;0.00;;;;;;;;5095190;27;45366;-71
2022/10/01 08:55:25;;;;;;;;;2.00;0.33;;;;;;;;5094629;27;45406;-71
2022/10/01 08:57:55;;;;;;;;;0.67;0.00;;;;;;;;5095113;27;45380;-71
2022/10/01 09:00:20;;;;;;;;;1.00;0.00;;;;;;;;5098463;27;46061;-71
2022/10/01 09:02:46;;;;;;;;;0.33;0.00;;;;;;;;5098625;27;45470;-71
2022/10/01 09:05:11;;;;;;;;;1.00;0.00;;;;;;;;5098469;27;45432;-71
2022/10/01 09:07:50;;;;;;;;;1.00;1.00;;;;;;;;5098326;27;45391;-71
2022/10/01 09:10:21;;;;;;;;;0.00;0.00;;;;;;;;5098429;27;45816;-72
2022/10/01 09:12:58;;;;;;;;;0.67;0.00;;;;;;;;5097905;27;45517;-71
2022/10/01 09:15:26;;;;;;;;;1.00;0.00;;;;;;;;5098404;27;45503;-71
2022/10/01 09:18:21;;;;;;;;;0.00;0.00;;;;;;;;5098286;27;45356;-71
2022/10/01 09:20:57;;;;;;;;;1.67;0.00;;;;;;;;5083906;27;45392;-71
2022/10/01 09:23:22;;;;;;;;;0.00;0.00;;;;;;;;5097764;27;45299;-71
2022/10/01 09:25:49;;;;;;;;;0.00;0.00;;;;;;;;5098179;27;45403;-71
2022/10/01 09:28:15;;;;;;;;;1.00;0.00;;;;;;;;5098238;27;45286;-71
2022/10/01 09:30:48;;;;;;;;;0.00;0.00;;;;;;;;5097916;27;47020;-71
2022/10/01 09:33:18;;;;;;;;;0.00;0.00;;;;;;;;5098148;27;45315;-71
2022/10/01 09:35:47;;;;;;;;;0.00;0.00;;;;;;;;5098178;27;45369;-72
2022/10/01 09:38:16;;;;;;;;;0.67;0.00;;;;;;;;5097973;27;45333;-71
2022/10/01 09:40:48;;;;;;;;;0.00;0.00;;;;;;;;5097908;27;46091;-71
2022/10/01 09:43:18;;;;;;;;;2.00;0.67;;;;;;;;5097960;27;45387;-72
2022/10/01 09:45:44;;;;;;;;;0.67;0.00;;;;;;;;5098150;27;45253;-71
2022/10/01 09:48:28;;;;;;;;;0.33;0.33;;;;;;;;5098068;27;45425;-71
2022/10/01 09:50:57;;;;;;;;;0.00;0.00;;;;;;;;5097853;27;46115;-71
2022/10/01 09:53:30;;;;;;;;;0.00;0.00;;;;;;;;5097357;27;45386;-71
2022/10/01 09:55:58;;;;;;;;;0.00;0.00;;;;;;;;5097725;27;45441;-71
2022/10/01 09:58:26;;;;;;;;;0.00;0.00;;;;;;;;5097743;27;45544;-72
2022/10/01 10:00:52;;;;;;;;;0.00;0.00;;;;;;;;5097640;27;47134;-71
2022/10/01 10:03:27;;;;;;;;;0.00;0.00;;;;;;;;5097394;27;45355;-71
2022/10/01 10:05:52;;;;;;;;;0.00;0.00;;;;;;;;5097133;27;45270;-71
2022/10/01 10:08:34;;;;;;;;;0.00;0.00;;;;;;;;5097612;27;45588;-71
2022/10/01 10:11:01;;;;;;;;;0.00;0.00;;;;;;;;5084088;27;46445;-71
2022/10/01 10:13:34;;;;;;;;;0.00;0.00;;;;;;;;5097281;27;45585;-71
2022/10/01 10:16:00;;;;;;;;;2.00;0.33;;;;;;;;5097428;27;45375;-72
2022/10/01 10:18:32;;;;;;;;;2.67;0.00;;;;;;;;5097583;27;45318;-71
2022/10/01 10:21:00;;;;;;;;;0.00;0.00;;;;;;;;5097067;27;46410;-71
2022/10/01 10:23:28;;;;;;;;;4.00;1.00;;;;;;;;5097151;27;45347;-71
2022/10/01 10:25:59;;;;;;;;;0.00;0.00;;;;;;;;5096960;27;45248;-71
2022/10/01 10:28:26;;;;;;;;;0.67;0.67;;;;;;;;5097490;27;45435;-71
2022/10/01 10:30:52;;;;;;;;;0.00;0.00;;;;;;;;5099014;27;47417;-71
2022/10/01 10:33:20;;;;;;;;;0.00;0.00;;;;;;;;5101003;27;45817;-71
2022/10/01 10:35:54;;;;;;;;;1.33;0.33;;;;;;;;5097114;27;45882;-72
2022/10/01 10:38:21;;;;;;;;;0.00;0.00;;;;;;;;5097241;27;45362;-71
2022/10/01 10:40:46;;;;;;;;;0.00;0.00;;;;;;;;5096794;27;46470;-72
2022/10/01 10:43:17;;;;;;;;;2.00;0.00;;;;;;;;5096578;27;45375;-71
2022/10/01 10:45:45;;;;;;;;;0.67;0.67;;;;;;;;5097027;27;45334;-71
2022/10/01 10:48:15;;;;;;;;;0.00;0.00;;;;;;;;5096912;27;45611;-71
2022/10/01 10:50:43;;;;;;;;;3.67;1.00;;;;;;;;5096234;27;46375;-71
2022/10/01 10:53:18;;;;;;;;;0.67;0.00;;;;;;;;5096778;27;45284;-71
2022/10/01 10:55:52;;;;;;;;;1.00;0.00;;;;;;;;5096920;27;45412;-71
2022/10/01 10:58:18;;;;;;;;;0.67;0.33;;;;;;;;5096754;27;45271;-71
2022/10/01 11:00:46;;;;;;;;;1.00;1.00;;;;;;;;5096605;27;47120;-72
2022/10/01 11:03:13;;;;;;;;;3.00;1.33;;;;;;;;5096409;27;45365;-72
2022/10/01 11:05:40;;;;;;;;;1.00;0.00;;;;;;;;5096395;27;45674;-71
2022/10/01 11:08:07;;;;;;;;;1.00;1.00;;;;;;;;5096591;27;45501;-71
2022/10/01 11:10:35;;;;;;;;;3.00;0.33;;;;;;;;5096235;27;46304;-71
2022/10/01 11:13:19;;;;;;;;;0.33;0.33;;;;;;;;5096801;27;45437;-71
2022/10/01 11:15:56;;;;;;;;;0.67;0.67;;;;;;;;5096481;27;45499;-71
2022/10/01 11:18:34;;;;;;;;;0.00;0.00;;;;;;;;5096389;27;45406;-71
2022/10/01 11:21:18;;;;;;;;;0.67;0.00;;;;;;;;5095814;27;47282;-71
2022/10/01 11:23:44;;;;;;;;;1.00;1.00;;;;;;;;5096045;27;45380;-71
2022/10/01 11:26:17;;;;;;;;;0.00;0.00;;;;;;;;5096254;27;45362;-71
2022/10/01 11:28:43;;;;;;;;;0.00;0.00;;;;;;;;5096371;27;45368;-71
2022/10/01 11:31:08;;;;;;;;;0.33;0.33;;;;;;;;5096011;27;46173;-71
2022/10/01 11:33:34;;;;;;;;;0.00;0.00;;;;;;;;5095185;27;45458;-71
2022/10/01 11:36:25;;;;;;;;;0.00;0.00;;;;;;;;5095818;27;45620;-72
2022/10/01 11:39:02;;;;;;;;;1.00;0.00;;;;;;;;5053416;28;45380;-71
2022/10/01 11:41:30;;;;;;;;;1.33;1.00;;;;;;;;5052995;28;47019;-71
2022/10/01 11:43:58;;;;;;;;;0.33;0.00;;;;;;;;5052203;28;45443;-71
2022/10/01 11:46:31;;;;;;;;;2.67;0.67;;;;;;;;5052474;28;45826;-71
2022/10/01 11:49:02;;;;;;;;;0.00;0.00;;;;;;;;5032658;28;45488;-71
2022/10/01 11:51:36;;;;;;;;;0.00;0.00;;;;;;;;5047444;28;46882;-71
2022/10/01 11:54:05;;;;;;;;;1.33;0.00;;;;;;;;5052818;28;45408;-71
2022/10/01 11:59:22;;;;;;;;;0.00;0.00;;;;;;;;5052693;28;45402;-71
2022/10/01 12:02:02;;;;;;;;;0.00;0.00;;;;;;;;5052233;28;46364;-71
2022/10/01 12:04:31;;;;;;;;;1.67;0.33;;;;;;;;5052583;28;45512;-71
2022/10/01 12:06:59;;;;;;;;;0.00;0.00;;;;;;;;5052670;28;45465;-71
2022/10/01 12:09:42;;;;;;;;;2.33;0.67;;;;;;;;5041533;28;45583;-71
2022/10/01 12:12:12;;;;;;;;;0.33;0.33;;;;;;;;5052548;28;46121;-71
2022/10/01 12:14:49;;;;;;;;;0.67;0.67;;;;;;;;5055093;27;45455;-71
2022/10/01 12:17:19;;;;;;;;;1.33;0.00;;;;;;;;5095036;27;45382;-71
2022/10/01 12:19:48;;;;;;;;;1.67;0.33;;;;;;;;5095559;27;45487;-71
2022/10/01 12:22:20;;;;;;;;;0.00;0.00;;;;;;;;5094914;27;46868;-71
2022/10/01 12:24:46;;;;;;;;;0.00;0.00;;;;;;;;5097450;27;45365;-71
2022/10/01 12:27:26;;;;;;;;;0.00;0.00;;;;;;;;5099398;27;45254;-71
2022/10/01 12:29:51;;;;;;;;;0.00;0.00;;;;;;;;5096424;27;45422;-71
2022/10/01 12:32:35;;;;;;;;;0.33;0.33;;;;;;;;5095289;27;45659;-72
2022/10/01 12:35:06;;;;;;;;;0.00;0.00;;;;;;;;5098827;27;45456;-72
2022/10/01 12:37:50;;;;;;;;;0.00;0.00;;;;;;;;5099074;27;45443;-71
2022/10/01 12:40:15;;;;;;;;;0.00;0.00;;;;;;;;5099090;27;45347;-71
2022/10/01 12:42:53;;;;;;;;;1.33;0.00;;;;;;;;5098495;27;46838;-71
2022/10/01 12:45:19;;;;;;;;;0.00;0.00;;;;;;;;5098597;27;45449;-71
2022/10/01 12:47:53;;;;;;;;;0.00;0.00;;;;;;;;5099000;27;45429;-72
2022/10/01 12:50:24;;;;;;;;;3.33;1.33;;;;;;;;5099252;27;45576;-71
2022/10/01 12:53:04;;;;;;;;;0.00;0.00;;;;;;;;5099007;27;45347;-71
2022/10/01 12:55:53;;;;;;;;;2.00;1.00;;;;;;;;5098936;27;45477;-71
2022/10/01 12:58:32;;;;;;;;;1.00;1.00;;;;;;;;5099038;27;45353;-71
2022/10/01 13:01:29;;;;;;;;;2.00;0.00;;;;;;;;5098396;27;45233;-71
2022/10/01 13:03:54;;;;;;;;;1.00;1.00;;;;;;;;5035210;28;46117;-71
2022/10/01 13:06:44;;;;;;;;;1.00;1.00;;;;;;;;5035592;28;45385;-71
2022/10/01 13:09:12;;;;;;;;;0.00;0.00;;;;;;;;5035432;28;45423;-71
2022/10/01 13:12:01;;;;;;;;;0.00;0.00;;;;;;;;5035784;28;45307;-71
2022/10/01 13:14:28;;;;;;;;;0.00;0.00;;;;;;;;5035004;28;47139;-71
2022/10/01 13:16:59;;;;;;;;;0.00;0.00;;;;;;;;5035171;28;45542;-71
2022/10/01 13:19:27;;;;;;;;;0.00;0.00;;;;;;;;5035396;28;45456;-71
2022/10/01 13:21:55;;;;;;;;;1.00;1.00;;;;;;;;5035339;28;45597;-71
2022/10/01 13:24:39;;;;;;;;;0.00;0.00;;;;;;;;5034857;28;46521;-71
2022/10/01 13:27:07;;;;;;;;;1.00;1.00;;;;;;;;5035040;28;45382;-71
2022/10/01 13:29:51;;;;;;;;;0.00;0.00;;;;;;;;5034973;28;45231;-71
2022/10/01 13:32:24;;;;;;;;;0.00;0.00;;;;;;;;5035140;28;45364;-71
2022/10/01 13:34:49;;;;;;;;;2.67;0.00;;;;;;;;5034902;28;46938;-72
2022/10/01 13:37:35;;;;;;;;;3.00;0.00;;;;;;;;5034840;28;45400;-72
2022/10/01 13:40:01;;;;;;;;;0.67;0.67;;;;;;;;5069551;27;45504;-71
2022/10/01 13:42:28;;;;;;;;;0.00;0.00;;;;;;;;5098035;27;45507;-71
2022/10/01 13:44:58;;;;;;;;;1.33;0.00;;;;;;;;5097071;27;45337;-72
2022/10/01 13:47:24;;;;;;;;;1.00;0.00;;;;;;;;5097477;27;45367;-71
2022/10/01 13:50:16;;;;;;;;;1.00;1.00;;;;;;;;5097864;27;45297;-71
2022/10/01 13:52:41;;;;;;;;;1.00;0.00;;;;;;;;5094714;27;45434;-71
2022/10/01 13:55:23;;;;;;;;;0.00;0.00;;;;;;;;5097668;27;46223;-71
2022/10/01 13:57:48;;;;;;;;;0.00;0.00;;;;;;;;5097326;27;45229;-71
2022/10/01 14:00:13;;;;;;;;;0.00;0.00;;;;;;;;5097826;27;45414;-71
2022/10/01 14:02:43;;;;;;;;;0.00;0.00;;;;;;;;5098304;27;45432;-72
2022/10/01 14:05:27;;;;;;;;;2.00;0.00;;;;;;;;5097167;27;47207;-71
2022/10/01 14:07:56;;;;;;;;;0.00;0.00;;;;;;;;5097168;27;45430;-71
2022/10/01 14:10:28;;;;;;;;;0.00;0.00;;;;;;;;5097802;27;45422;-71
2022/10/01 14:16:01;;;;;;;;;2.00;0.33;;;;;;;;5097471;27;45500;-71
2022/10/01 14:18:33;;;;;;;;;0.33;0.00;;;;;;;;5097531;27;45440;-71
2022/10/01 14:21:21;;;;;;;;;0.00;0.00;;;;;;;;5099280;27;45397;-71
2022/10/01 14:24:05;;;;;;;;;0.00;0.00;;;;;;;;5088835;27;45550;-71
2022/10/01 14:26:30;;;;;;;;;1.67;0.00;;;;;;;;5097082;27;47127;-71
2022/10/01 14:29:05;;;;;;;;;0.00;0.00;;;;;;;;5096946;27;45626;-72
2022/10/01 14:31:39;;;;;;;;;0.00;0.00;;;;;;;;5097153;27;45469;-70
2022/10/01 14:34:10;;;;;;;;;1.00;0.00;;;;;;;;5097180;27;45546;-71
2022/10/01 14:36:49;;;;;;;;;0.00;0.00;;;;;;;;5096738;27;45413;-71
2022/10/01 14:39:19;;;;;;;;;0.67;0.67;;;;;;;;5097200;27;45454;-72
2022/10/01 14:41:45;;;;;;;;;2.33;0.67;;;;;;;;5096847;27;45441;-72
2022/10/01 14:44:34;;;;;;;;;1.00;1.00;;;;;;;;5097004;27;45453;-71
2022/10/01 14:47:10;;;;;;;;;0.00;0.00;;;;;;;;5088363;27;46205;-71
2022/10/01 14:49:35;;;;;;;;;2.00;0.33;;;;;;;;5096940;27;45371;-71
2022/10/01 14:52:02;;;;;;;;;3.00;0.00;;;;;;;;5096913;27;45519;-71
2022/10/01 14:54:28;;;;;;;;;2.00;0.00;;;;;;;;5078713;27;45530;-72
2022/10/01 14:56:54;;;;;;;;;0.00;0.00;;;;;;;;5095336;27;46050;-71
2022/10/01 14:59:39;;;;;;;;;1.00;1.00;;;;;;;;5096797;27;45339;-71
2022/10/01 15:02:16;;;;;;;;;0.00;0.00;;;;;;;;5096741;27;45323;-72